クライストチャーチ の空港の天気 - METARとTAF

クライストチャーチ国際空港 ( NZCH / CHC ) - ニュージーランド クライストチャーチ
飛行場実況気象(Metar)
観測時間02/21 04:00 NZDT (02/20 15:00 UTC)
風向・風速東北東 4m/s
視程6000m
天気現象
全天の8割程度の雲 雲底高度 150m
気温16℃
湿度100%
気圧1021hPa
METARNZCH 201500Z AUTO 07007KT 6000 BKN005/// 16/16 Q1021 TEMPO SCT005
過去の天気等 Google飛行場航空写真 Wunderground天気予報

過去48時間のMETAR

飛行場予報(TAF)
発表時間: 2/21 00:08 NZDT (2/20 11:08 UTC)
予報対象時間: 21日1時 NZDT ~ 22日1時 NZDT
風向・風速東 6m/s
視程8,000m
天気現象煙霧
少しの雲 雲底高度 300m
21日3時 NZDT から 確率 30% で
全天の8割程度の雲 雲底高度 180m
21日9時 NZDT ~ 21日11時 NZDT に徐々に
視程10km以上
天気現象運行に影響にある天気現象が終了
TAF NZCH 201108Z 2012/2112 08012KT 8000 HZ FEW010
PROB30 2014/2020 BKN006
BECMG 2020/2022 9999 NSW